Poughquag, NY (12570)

5:16 PM EDT on July 24, 2016 (GMT -0400)
Blueberry Mtn | | Change Station

Elev 1250 ft 41.64 °N, 73.64 °W | Updated 5 minutes ago

Clear
Clear
89.7 °F
Feels Like 88 °F
N
5.0
Wind Variable Wind from WNW
Gusts 11.0 mph

Today
High -- | Low -- °F
--% Chance of Precip.
Yesterday
High -- | Low -- °F
Precip. -- in
Pressure 29.91 in
Visibility 10.0 miles
Clouds Clear
Heat Index 88 °F
Dew Point 54 °F
Humidity 30%
Rainfall 0.00 in
Snow Depth Not available.
5:41 AM 8:20 PM
Waning Gibbous, 73% visible
METAR KPOU 242053Z 14005KT 10SM CLR 34/13 A2992 RMK AO2 SLP129 T03390133 55008
Pressure 29.91 in
Visibility 10.0 miles
Clouds Clear
Heat Index 88 °F
Dew Point 54 °F
Humidity 30%
Rainfall 0.00 in
Snow Depth Not available.
5:41 AM 8:20 PM
Waning Gibbous, 73% visible
METAR KPOU 242053Z 14005KT 10SM CLR 34/13 A2992 RMK AO2 SLP129 T03390133 55008

10-Day Weather Forecast

Almanac

Astronomy

Jul. 24, 2016 Rise Set
Actual Time
Civil Twilight
Nautical Twilight
Astronomical Twilight
Moon
Length of Visible Light
Length of Day
Tomorrow will be .
, % of the Moon is Illuminated

Today's Extremes

State Highs State Lows

Community

WunderPhotos

Upload Photos

1,927,191 photos uploaded!

WunderBlog® & News

Nearby

Air Quality

  Air Quality AQ Index Pollutant
Not available.

Snow Depth

Station Depth Elevation

Earthquake Activity

City Distance Mag. Time & Date
Minimum magnitude displayed is 2.5.

Coastal Water Temperatures

Place Temperature

Stations

Nearby Weather Stations

Station Location Temp. Windchill Dew Point Humidity Wind Precip. Elev Updated Type
                   

Watches & Warnings

There are currently no watches in effect.